Etusivu
METAR-TAF:

METAR-TAF

Lentoasemat :

Kööpenhamina, Tanska

Kööpenhaminan lentoasema

Leveyspiiri: 55-37N, Pituuspiiri: 012-39E, korkeus merenpinnasta: 5 m

Tämänhetkinen sää

Tämä raportti tehtiin 19 minuuttia sitten, kello 14.20 UTC
Tuuli 9 kn idästä/kaakosta
Lämpötila 17°C
Kosteus 88%
Ilmanpaine 1015 hPa
Näkyvyys 10 km tai enemmän
Hajonneita pilviä 1000 ft:n korkeudessa

METAR: EKCH 211420Z 12009KT 9999 BKN010 17/15 Q1015 BECMG BKN015

Aika: 16:39 (14:39 UTC)

Sääennuste

Tämä raportti tehtiin 2 tuntia ja 3 minuuttia sitten, kello 12.36 UTC
Ennuste voimassa 21. päivästä klo 12 UTC - 22. päivään klo 12 UTC
Tuuli 11 kn idästä/kaakosta
Näkyvyys 10 km tai enemmän
Hajonneita pilviä 1500 ft:n korkeudessa
Ajoittain
21. päivästä klo 12 UTC - 21. päivään klo 21 UTC
Hajonneita pilviä 800 ft:n korkeudessa

TAF: EKCH 211236Z 2112/2212 11011KT 9999 BKN015 TEMPO 2112/2121 BKN008

Säähavainnot ja -ennusteet yli 4000 lentoasemalta (METAR- ja TAF-raportit).

Käytössä olevat sääasemat on merkitty karttaan keltaisilla ja punaisilla pisteillä.

Aseta hiiri pisteen päälle nähdäksesi sääaseman nimen.

Klikkaa sitten nähdäksesi säähavainnot ja -ennusteet.

Kartan vaihtaminen: klikkaa mustalla rastilla varustettuja vihreitä pisteitä, niin voit zoomata sisään; viivalla varustettua vihreää pistettä, niin voit zoomata ulos tai vihreitä nuolia, niin pääset viereisille kartoille.


METAR-TAF: